sensor_id;sensor_type;location;lat;lon;timestamp;P1;P2;P0
48155;PMS5003;35568;48.104;11.782;2023-12-14T00:02:08;0;0;
48155;PMS5003;35568;48.104;11.782;2023-12-14T00:04:36;0;0;
48155;PMS5003;35568;48.104;11.782;2023-12-14T00:07:09;1;0;
48155;PMS5003;35568;48.104;11.782;2023-12-14T00:09:41;0;0;
48155;PMS5003;35568;48.104;11.782;2023-12-14T00:12:08;0;0;
48155;PMS5003;35568;48.104;11.782;2023-12-14T00:14:35;0;0;
48155;PMS5003;35568;48.104;11.782;2023-12-14T00:17:02;0;0;
48155;PMS5003;35568;48.104;11.782;2023-12-14T00:19:29;0;0;
48155;PMS5003;35568;48.104;11.782;2023-12-14T00:21:55;0;0;
48155;PMS5003;35568;48.104;11.782;2023-12-14T00:24:22;0;0;
48155;PMS5003;35568;48.104;11.782;2023-12-14T00:26:49;0;0;
48155;PMS5003;35568;48.104;11.782;2023-12-14T00:29:16;0;0;
48155;PMS5003;35568;48.104;11.782;2023-12-14T00:31:43;0;0;
48155;PMS5003;35568;48.104;11.782;2023-12-14T00:34:09;1;1;
48155;PMS5003;35568;48.104;11.782;2023-12-14T00:36:37;0;0;
48155;PMS5003;35568;48.104;11.782;2023-12-14T00:39:04;0;0;
48155;PMS5003;35568;48.104;11.782;2023-12-14T00:41:31;0;0;
48155;PMS5003;35568;48.104;11.782;2023-12-14T00:43:57;0;0;
48155;PMS5003;35568;48.104;11.782;2023-12-14T00:46:24;0;0;
48155;PMS5003;35568;48.104;11.782;2023-12-14T00:48:51;0;0;
48155;PMS5003;35568;48.104;11.782;2023-12-14T00:51:18;0;0;
48155;PMS5003;35568;48.104;11.782;2023-12-14T00:53:45;0;0;
48155;PMS5003;35568;48.104;11.782;2023-12-14T00:56:12;0;0;
48155;PMS5003;35568;48.104;11.782;2023-12-14T00:58:38;0;0;
48155;PMS5003;35568;48.104;11.782;2023-12-14T01:01:05;0;0;
48155;PMS5003;35568;48.104;11.782;2023-12-14T01:03:32;1;1;
48155;PMS5003;35568;48.104;11.782;2023-12-14T01:05:59;0;0;
48155;PMS5003;35568;48.104;11.782;2023-12-14T01:08:26;0;0;
48155;PMS5003;35568;48.104;11.782;2023-12-14T01:10:52;0;0;
48155;PMS5003;35568;48.104;11.782;2023-12-14T01:13:19;0;0;
48155;PMS5003;35568;48.104;11.782;2023-12-14T01:15:46;1;1;
48155;PMS5003;35568;48.104;11.782;2023-12-14T01:18:13;0;0;
48155;PMS5003;35568;48.104;11.782;2023-12-14T01:20:40;1;0;
48155;PMS5003;35568;48.104;11.782;2023-12-14T01:23:07;0;0;
48155;PMS5003;35568;48.104;11.782;2023-12-14T01:25:33;1;1;
48155;PMS5003;35568;48.104;11.782;2023-12-14T01:28:00;0;0;
48155;PMS5003;35568;48.104;11.782;2023-12-14T01:30:27;0;0;
48155;PMS5003;35568;48.104;11.782;2023-12-14T01:32:54;0;0;
48155;PMS5003;35568;48.104;11.782;2023-12-14T01:35:21;1;1;
48155;PMS5003;35568;48.104;11.782;2023-12-14T01:37:47;0;0;
48155;PMS5003;35568;48.104;11.782;2023-12-14T01:40:14;0;0;
48155;PMS5003;35568;48.104;11.782;2023-12-14T01:42:45;0;0;
48155;PMS5003;35568;48.104;11.782;2023-12-14T01:45:11;1;1;
48155;PMS5003;35568;48.104;11.782;2023-12-14T01:47:51;0;0;
48155;PMS5003;35568;48.104;11.782;2023-12-14T01:50:23;0;0;
48155;PMS5003;35568;48.104;11.782;2023-12-14T01:52:53;1;1;
48155;PMS5003;35568;48.104;11.782;2023-12-14T01:55:19;0;0;
48155;PMS5003;35568;48.104;11.782;2023-12-14T01:57:46;1;1;
48155;PMS5003;35568;48.104;11.782;2023-12-14T02:00:22;0;0;
48155;PMS5003;35568;48.104;11.782;2023-12-14T02:02:56;0;0;
48155;PMS5003;35568;48.104;11.782;2023-12-14T02:05:23;1;1;
48155;PMS5003;35568;48.104;11.782;2023-12-14T02:07:50;0;0;
48155;PMS5003;35568;48.104;11.782;2023-12-14T02:10:17;0;0;
48155;PMS5003;35568;48.104;11.782;2023-12-14T02:12:44;0;0;
48155;PMS5003;35568;48.104;11.782;2023-12-14T02:15:11;0;0;
48155;PMS5003;35568;48.104;11.782;2023-12-14T02:17:38;0;0;
48155;PMS5003;35568;48.104;11.782;2023-12-14T02:20:05;0;0;
48155;PMS5003;35568;48.104;11.782;2023-12-14T02:22:35;0;0;
48155;PMS5003;35568;48.104;11.782;2023-12-14T02:25:14;0;0;
48155;PMS5003;35568;48.104;11.782;2023-12-14T02:27:41;0;0;
48155;PMS5003;35568;48.104;11.782;2023-12-14T02:30:08;1;1;
48155;PMS5003;35568;48.104;11.782;2023-12-14T02:32:35;0;0;
48155;PMS5003;35568;48.104;11.782;2023-12-14T02:35:03;0;0;
48155;PMS5003;35568;48.104;11.782;2023-12-14T02:37:32;0;0;
48155;PMS5003;35568;48.104;11.782;2023-12-14T02:39:59;0;0;
48155;PMS5003;35568;48.104;11.782;2023-12-14T02:42:27;0;0;
48155;PMS5003;35568;48.104;11.782;2023-12-14T02:44:54;0;0;
48155;PMS5003;35568;48.104;11.782;2023-12-14T02:47:22;0;0;
48155;PMS5003;35568;48.104;11.782;2023-12-14T02:49:49;0;0;
48155;PMS5003;35568;48.104;11.782;2023-12-14T02:52:16;0;0;
48155;PMS5003;35568;48.104;11.782;2023-12-14T02:54:43;0;0;
48155;PMS5003;35568;48.104;11.782;2023-12-14T02:57:10;1;1;
48155;PMS5003;35568;48.104;11.782;2023-12-14T02:59:36;0;0;
48155;PMS5003;35568;48.104;11.782;2023-12-14T03:02:04;1;1;
48155;PMS5003;35568;48.104;11.782;2023-12-14T03:04:31;0;0;
48155;PMS5003;35568;48.104;11.782;2023-12-14T03:06:58;0;0;
48155;PMS5003;35568;48.104;11.782;2023-12-14T03:09:25;0;0;
48155;PMS5003;35568;48.104;11.782;2023-12-14T03:11:53;0;0;
48155;PMS5003;35568;48.104;11.782;2023-12-14T03:14:21;0;0;
48155;PMS5003;35568;48.104;11.782;2023-12-14T03:16:48;0;0;
48155;PMS5003;35568;48.104;11.782;2023-12-14T03:19:15;2;2;
48155;PMS5003;35568;48.104;11.782;2023-12-14T03:21:43;0;0;
48155;PMS5003;35568;48.104;11.782;2023-12-14T03:24:10;1;1;
48155;PMS5003;35568;48.104;11.782;2023-12-14T03:26:37;1;1;
48155;PMS5003;35568;48.104;11.782;2023-12-14T03:29:03;1;1;
48155;PMS5003;35568;48.104;11.782;2023-12-14T03:31:30;1;1;
48155;PMS5003;35568;48.104;11.782;2023-12-14T03:33:58;0;0;
48155;PMS5003;35568;48.104;11.782;2023-12-14T03:36:25;0;0;
48155;PMS5003;35568;48.104;11.782;2023-12-14T03:38:52;1;1;
48155;PMS5003;35568;48.104;11.782;2023-12-14T03:41:19;0;0;
48155;PMS5003;35568;48.104;11.782;2023-12-14T03:43:47;1;1;
48155;PMS5003;35568;48.104;11.782;2023-12-14T03:46:14;1;1;
48155;PMS5003;35568;48.104;11.782;2023-12-14T03:48:40;2;2;
48155;PMS5003;35568;48.104;11.782;2023-12-14T03:51:07;2;2;
48155;PMS5003;35568;48.104;11.782;2023-12-14T03:53:34;2;2;
48155;PMS5003;35568;48.104;11.782;2023-12-14T03:56:01;2;2;
48155;PMS5003;35568;48.104;11.782;2023-12-14T03:58:29;2;2;
48155;PMS5003;35568;48.104;11.782;2023-12-14T04:03:02;2;2;
48155;PMS5003;35568;48.104;11.782;2023-12-14T04:05:29;2;2;
48155;PMS5003;35568;48.104;11.782;2023-12-14T04:07:57;2;2;
48155;PMS5003;35568;48.104;11.782;2023-12-14T04:10:25;4;4;
48155;PMS5003;35568;48.104;11.782;2023-12-14T04:12:52;3;3;
48155;PMS5003;35568;48.104;11.782;2023-12-14T04:15:19;1;1;
48155;PMS5003;35568;48.104;11.782;2023-12-14T04:17:47;2;2;
48155;PMS5003;35568;48.104;11.782;2023-12-14T04:20:14;2;2;
48155;PMS5003;35568;48.104;11.782;2023-12-14T04:22:41;2;2;
48155;PMS5003;35568;48.104;11.782;2023-12-14T04:25:09;2;2;
48155;PMS5003;35568;48.104;11.782;2023-12-14T04:27:37;1;1;
48155;PMS5003;35568;48.104;11.782;2023-12-14T04:30:04;1;0;
48155;PMS5003;35568;48.104;11.782;2023-12-14T04:32:32;3;3;
48155;PMS5003;35568;48.104;11.782;2023-12-14T04:35:00;2;2;
48155;PMS5003;35568;48.104;11.782;2023-12-14T04:37:26;3;3;
48155;PMS5003;35568;48.104;11.782;2023-12-14T04:39:53;1;1;
48155;PMS5003;35568;48.104;11.782;2023-12-14T04:42:21;2;1;
48155;PMS5003;35568;48.104;11.782;2023-12-14T04:44:48;3;3;
48155;PMS5003;35568;48.104;11.782;2023-12-14T04:47:15;2;2;
48155;PMS5003;35568;48.104;11.782;2023-12-14T04:49:43;2;2;
48155;PMS5003;35568;48.104;11.782;2023-12-14T04:52:11;3;3;
48155;PMS5003;35568;48.104;11.782;2023-12-14T04:54:38;2;2;
48155;PMS5003;35568;48.104;11.782;2023-12-14T04:57:05;2;1;
48155;PMS5003;35568;48.104;11.782;2023-12-14T04:59:32;2;2;
48155;PMS5003;35568;48.104;11.782;2023-12-14T05:01:59;1;1;
48155;PMS5003;35568;48.104;11.782;2023-12-14T05:04:26;2;1;
48155;PMS5003;35568;48.104;11.782;2023-12-14T05:06:53;1;1;
48155;PMS5003;35568;48.104;11.782;2023-12-14T05:09:21;1;1;
48155;PMS5003;35568;48.104;11.782;2023-12-14T05:11:48;1;1;
48155;PMS5003;35568;48.104;11.782;2023-12-14T05:14:15;1;1;
48155;PMS5003;35568;48.104;11.782;2023-12-14T05:16:41;2;2;
48155;PMS5003;35568;48.104;11.782;2023-12-14T05:19:09;1;1;
48155;PMS5003;35568;48.104;11.782;2023-12-14T05:21:36;2;2;
48155;PMS5003;35568;48.104;11.782;2023-12-14T05:24:04;0;0;
48155;PMS5003;35568;48.104;11.782;2023-12-14T05:26:31;1;1;
48155;PMS5003;35568;48.104;11.782;2023-12-14T05:28:58;1;1;
48155;PMS5003;35568;48.104;11.782;2023-12-14T05:31:25;1;1;
48155;PMS5003;35568;48.104;11.782;2023-12-14T05:33:52;0;0;
48155;PMS5003;35568;48.104;11.782;2023-12-14T05:36:18;2;1;
48155;PMS5003;35568;48.104;11.782;2023-12-14T05:38:45;0;0;
48155;PMS5003;35568;48.104;11.782;2023-12-14T05:41:12;0;0;
48155;PMS5003;35568;48.104;11.782;2023-12-14T05:43:39;1;1;
48155;PMS5003;35568;48.104;11.782;2023-12-14T05:46:07;0;0;
48155;PMS5003;35568;48.104;11.782;2023-12-14T05:48:34;1;1;
48155;PMS5003;35568;48.104;11.782;2023-12-14T05:51:04;1;1;
48155;PMS5003;35568;48.104;11.782;2023-12-14T05:53:31;1;1;
48155;PMS5003;35568;48.104;11.782;2023-12-14T05:55:58;1;1;
48155;PMS5003;35568;48.104;11.782;2023-12-14T05:58:25;1;1;
48155;PMS5003;35568;48.104;11.782;2023-12-14T06:00:52;1;1;
48155;PMS5003;35568;48.104;11.782;2023-12-14T06:03:18;1;1;
48155;PMS5003;35568;48.104;11.782;2023-12-14T06:05:47;1;1;
48155;PMS5003;35568;48.104;11.782;2023-12-14T06:08:19;1;1;
48155;PMS5003;35568;48.104;11.782;2023-12-14T06:10:47;2;2;
48155;PMS5003;35568;48.104;11.782;2023-12-14T06:13:13;1;1;
48155;PMS5003;35568;48.104;11.782;2023-12-14T06:15:40;2;2;
48155;PMS5003;35568;48.104;11.782;2023-12-14T06:18:07;0;0;
48155;PMS5003;35568;48.104;11.782;2023-12-14T06:20:34;3;3;
48155;PMS5003;35568;48.104;11.782;2023-12-14T06:23:03;1;1;
48155;PMS5003;35568;48.104;11.782;2023-12-14T06:25:30;2;2;
48155;PMS5003;35568;48.104;11.782;2023-12-14T06:27:57;2;2;
48155;PMS5003;35568;48.104;11.782;2023-12-14T06:30:24;3;2;
48155;PMS5003;35568;48.104;11.782;2023-12-14T06:32:51;5;2;
48155;PMS5003;35568;48.104;11.782;2023-12-14T06:35:17;3;3;
48155;PMS5003;35568;48.104;11.782;2023-12-14T06:37:44;1;1;
48155;PMS5003;35568;48.104;11.782;2023-12-14T06:40:11;3;3;
48155;PMS5003;35568;48.104;11.782;2023-12-14T06:42:38;4;4;
48155;PMS5003;35568;48.104;11.782;2023-12-14T06:45:05;2;1;
48155;PMS5003;35568;48.104;11.782;2023-12-14T06:47:32;2;1;
48155;PMS5003;35568;48.104;11.782;2023-12-14T06:50:00;2;2;
48155;PMS5003;35568;48.104;11.782;2023-12-14T06:52:27;3;2;
48155;PMS5003;35568;48.104;11.782;2023-12-14T06:54:53;3;2;
48155;PMS5003;35568;48.104;11.782;2023-12-14T06:57:20;4;4;
48155;PMS5003;35568;48.104;11.782;2023-12-14T06:59:47;4;3;
48155;PMS5003;35568;48.104;11.782;2023-12-14T07:02:15;4;3;
48155;PMS5003;35568;48.104;11.782;2023-12-14T07:04:42;3;3;
48155;PMS5003;35568;48.104;11.782;2023-12-14T07:07:10;6;5;
48155;PMS5003;35568;48.104;11.782;2023-12-14T07:09:37;2;2;
48155;PMS5003;35568;48.104;11.782;2023-12-14T07:12:04;4;4;
48155;PMS5003;35568;48.104;11.782;2023-12-14T07:14:31;4;3;
48155;PMS5003;35568;48.104;11.782;2023-12-14T07:16:59;4;4;
48155;PMS5003;35568;48.104;11.782;2023-12-14T07:19:26;5;4;
48155;PMS5003;35568;48.104;11.782;2023-12-14T07:21:54;6;6;
48155;PMS5003;35568;48.104;11.782;2023-12-14T07:24:24;7;7;
48155;PMS5003;35568;48.104;11.782;2023-12-14T07:26:52;6;6;
48155;PMS5003;35568;48.104;11.782;2023-12-14T07:29:24;4;3;
48155;PMS5003;35568;48.104;11.782;2023-12-14T07:31:52;3;3;
48155;PMS5003;35568;48.104;11.782;2023-12-14T07:34:19;4;4;
48155;PMS5003;35568;48.104;11.782;2023-12-14T07:36:45;5;5;
48155;PMS5003;35568;48.104;11.782;2023-12-14T07:39:13;4;4;
48155;PMS5003;35568;48.104;11.782;2023-12-14T07:41:40;4;3;
48155;PMS5003;35568;48.104;11.782;2023-12-14T07:44:08;5;4;
48155;PMS5003;35568;48.104;11.782;2023-12-14T07:46:35;5;5;
48155;PMS5003;35568;48.104;11.782;2023-12-14T07:49:01;3;3;
48155;PMS5003;35568;48.104;11.782;2023-12-14T07:51:28;4;4;
48155;PMS5003;35568;48.104;11.782;2023-12-14T07:53:56;4;4;
48155;PMS5003;35568;48.104;11.782;2023-12-14T07:56:24;6;5;
48155;PMS5003;35568;48.104;11.782;2023-12-14T07:58:51;4;4;
48155;PMS5003;35568;48.104;11.782;2023-12-14T08:01:18;4;4;
48155;PMS5003;35568;48.104;11.782;2023-12-14T08:03:46;4;4;
48155;PMS5003;35568;48.104;11.782;2023-12-14T08:06:14;5;4;
48155;PMS5003;35568;48.104;11.782;2023-12-14T08:08:41;3;3;
48155;PMS5003;35568;48.104;11.782;2023-12-14T08:11:08;3;3;
48155;PMS5003;35568;48.104;11.782;2023-12-14T08:13:37;4;3;
48155;PMS5003;35568;48.104;11.782;2023-12-14T08:16:05;4;4;
48155;PMS5003;35568;48.104;11.782;2023-12-14T08:18:32;2;2;
48155;PMS5003;35568;48.104;11.782;2023-12-14T08:20:59;6;5;
48155;PMS5003;35568;48.104;11.782;2023-12-14T08:23:26;5;5;
48155;PMS5003;35568;48.104;11.782;2023-12-14T08:25:53;7;7;
48155;PMS5003;35568;48.104;11.782;2023-12-14T08:28:20;6;5;
48155;PMS5003;35568;48.104;11.782;2023-12-14T08:30:47;6;5;
48155;PMS5003;35568;48.104;11.782;2023-12-14T08:33:16;5;5;
48155;PMS5003;35568;48.104;11.782;2023-12-14T08:35:44;5;4;
48155;PMS5003;35568;48.104;11.782;2023-12-14T08:38:11;5;4;
48155;PMS5003;35568;48.104;11.782;2023-12-14T08:40:39;6;5;
48155;PMS5003;35568;48.104;11.782;2023-12-14T08:43:06;5;5;
48155;PMS5003;35568;48.104;11.782;2023-12-14T08:45:33;3;3;
48155;PMS5003;35568;48.104;11.782;2023-12-14T08:48:00;7;5;
48155;PMS5003;35568;48.104;11.782;2023-12-14T08:50:29;4;4;
48155;PMS5003;35568;48.104;11.782;2023-12-14T08:52:56;4;4;
48155;PMS5003;35568;48.104;11.782;2023-12-14T08:55:24;5;4;
48155;PMS5003;35568;48.104;11.782;2023-12-14T08:57:52;5;4;
48155;PMS5003;35568;48.104;11.782;2023-12-14T09:00:21;5;5;
48155;PMS5003;35568;48.104;11.782;2023-12-14T09:02:53;3;3;
48155;PMS5003;35568;48.104;11.782;2023-12-14T09:05:22;3;2;
48155;PMS5003;35568;48.104;11.782;2023-12-14T09:07:49;3;3;
48155;PMS5003;35568;48.104;11.782;2023-12-14T09:10:23;2;2;
48155;PMS5003;35568;48.104;11.782;2023-12-14T09:12:51;7;5;
48155;PMS5003;35568;48.104;11.782;2023-12-14T09:15:18;5;4;
48155;PMS5003;35568;48.104;11.782;2023-12-14T09:17:45;6;5;
48155;PMS5003;35568;48.104;11.782;2023-12-14T09:20:14;6;5;
48155;PMS5003;35568;48.104;11.782;2023-12-14T09:22:43;4;4;
48155;PMS5003;35568;48.104;11.782;2023-12-14T09:25:17;5;5;
48155;PMS5003;35568;48.104;11.782;2023-12-14T09:27:45;6;4;
48155;PMS5003;35568;48.104;11.782;2023-12-14T09:30:18;3;3;
48155;PMS5003;35568;48.104;11.782;2023-12-14T09:32:47;6;6;
48155;PMS5003;35568;48.104;11.782;2023-12-14T09:35:16;4;4;
48155;PMS5003;35568;48.104;11.782;2023-12-14T09:37:51;4;4;
48155;PMS5003;35568;48.104;11.782;2023-12-14T09:40:18;4;3;
48155;PMS5003;35568;48.104;11.782;2023-12-14T09:42:48;8;4;
48155;PMS5003;35568;48.104;11.782;2023-12-14T09:45:23;3;3;
48155;PMS5003;35568;48.104;11.782;2023-12-14T09:47:54;2;2;
48155;PMS5003;35568;48.104;11.782;2023-12-14T09:50:24;3;3;
48155;PMS5003;35568;48.104;11.782;2023-12-14T09:52:57;7;6;
48155;PMS5003;35568;48.104;11.782;2023-12-14T09:56:08;4;4;
48155;PMS5003;35568;48.104;11.782;2023-12-14T09:58:38;4;4;
48155;PMS5003;35568;48.104;11.782;2023-12-14T10:01:21;3;3;
48155;PMS5003;35568;48.104;11.782;2023-12-14T10:04:18;5;5;
48155;PMS5003;35568;48.104;11.782;2023-12-14T10:06:50;5;4;
48155;PMS5003;35568;48.104;11.782;2023-12-14T10:09:22;5;5;
48155;PMS5003;35568;48.104;11.782;2023-12-14T10:11:51;5;5;
48155;PMS5003;35568;48.104;11.782;2023-12-14T10:14:30;3;3;
48155;PMS5003;35568;48.104;11.782;2023-12-14T10:17:13;3;3;
48155;PMS5003;35568;48.104;11.782;2023-12-14T10:19:42;4;4;
48155;PMS5003;35568;48.104;11.782;2023-12-14T10:22:10;3;3;
48155;PMS5003;35568;48.104;11.782;2023-12-14T10:24:37;3;3;
48155;PMS5003;35568;48.104;11.782;2023-12-14T10:27:05;1;1;
48155;PMS5003;35568;48.104;11.782;2023-12-14T10:29:32;3;2;
48155;PMS5003;35568;48.104;11.782;2023-12-14T10:32:00;2;2;
48155;PMS5003;35568;48.104;11.782;2023-12-14T10:34:29;1;1;
48155;PMS5003;35568;48.104;11.782;2023-12-14T10:36:57;2;2;
48155;PMS5003;35568;48.104;11.782;2023-12-14T10:39:32;1;1;
48155;PMS5003;35568;48.104;11.782;2023-12-14T10:42:01;3;3;
48155;PMS5003;35568;48.104;11.782;2023-12-14T10:44:42;4;3;
48155;PMS5003;35568;48.104;11.782;2023-12-14T10:47:18;2;2;
48155;PMS5003;35568;48.104;11.782;2023-12-14T10:49:47;2;2;
48155;PMS5003;35568;48.104;11.782;2023-12-14T10:52:17;2;2;
48155;PMS5003;35568;48.104;11.782;2023-12-14T10:54:45;3;3;
48155;PMS5003;35568;48.104;11.782;2023-12-14T10:57:16;2;2;
48155;PMS5003;35568;48.104;11.782;2023-12-14T10:59:43;2;2;
48155;PMS5003;35568;48.104;11.782;2023-12-14T11:02:15;2;2;
48155;PMS5003;35568;48.104;11.782;2023-12-14T11:05:00;3;3;
48155;PMS5003;35568;48.104;11.782;2023-12-14T11:07:44;2;2;
48155;PMS5003;35568;48.104;11.782;2023-12-14T11:10:13;3;3;
48155;PMS5003;35568;48.104;11.782;2023-12-14T11:12:57;3;3;
48155;PMS5003;35568;48.104;11.782;2023-12-14T11:15:28;3;3;
48155;PMS5003;35568;48.104;11.782;2023-12-14T11:18:28;2;2;
48155;PMS5003;35568;48.104;11.782;2023-12-14T11:20:56;0;0;
48155;PMS5003;35568;48.104;11.782;2023-12-14T11:23:30;1;1;
48155;PMS5003;35568;48.104;11.782;2023-12-14T11:26:01;1;1;
48155;PMS5003;35568;48.104;11.782;2023-12-14T11:28:36;0;0;
48155;PMS5003;35568;48.104;11.782;2023-12-14T11:31:05;3;3;
48155;PMS5003;35568;48.104;11.782;2023-12-14T11:33:36;1;1;
48155;PMS5003;35568;48.104;11.782;2023-12-14T11:36:05;1;1;
48155;PMS5003;35568;48.104;11.782;2023-12-14T11:38:33;5;4;
48155;PMS5003;35568;48.104;11.782;2023-12-14T11:41:01;3;2;
48155;PMS5003;35568;48.104;11.782;2023-12-14T11:43:28;1;1;
48155;PMS5003;35568;48.104;11.782;2023-12-14T11:45:55;2;2;
48155;PMS5003;35568;48.104;11.782;2023-12-14T11:48:23;2;2;
48155;PMS5003;35568;48.104;11.782;2023-12-14T11:50:51;3;3;
48155;PMS5003;35568;48.104;11.782;2023-12-14T11:53:19;2;2;
48155;PMS5003;35568;48.104;11.782;2023-12-14T11:55:47;2;1;
